createdAt,value
2022-12-16T00:00:35.342Z,96969.06
2022-12-16T00:03:39.329Z,96971.13
2022-12-16T00:06:42.244Z,96976.84
2022-12-16T00:09:47.083Z,96980.06
2022-12-16T00:12:49.942Z,96989.56
2022-12-16T00:15:54.937Z,96985.09
2022-12-16T00:18:58.199Z,96986.59
2022-12-16T00:22:01.141Z,96986.81
2022-12-16T00:25:06.393Z,96974.47
2022-12-16T00:28:09.305Z,96973.56
2022-12-16T00:31:12.738Z,96976.75
2022-12-16T00:34:15.769Z,96973.91
2022-12-16T00:37:18.923Z,96979.50
2022-12-16T00:40:23.059Z,96981.81
2022-12-16T00:43:26.160Z,96978.25
2022-12-16T00:46:28.929Z,96977.78
2022-12-16T00:49:31.865Z,96989.44
2022-12-16T00:52:34.829Z,96989.13
2022-12-16T00:55:39.250Z,97005.72
2022-12-16T00:58:42.626Z,96995.84
2022-12-16T01:01:45.685Z,97005.25
2022-12-16T01:04:49.016Z,97011.88
2022-12-16T01:07:52.092Z,97013.50
2022-12-16T01:10:58.252Z,97020.94
2022-12-16T01:14:01.617Z,97017.75
2022-12-16T01:17:04.956Z,97021.44
2022-12-16T01:20:09.664Z,97021.97
2022-12-16T01:23:12.756Z,97018.91
2022-12-16T01:26:18.630Z,97020.88
2022-12-16T01:29:21.598Z,97023.94
2022-12-16T01:32:24.728Z,97019.25
2022-12-16T01:35:52.636Z,97018.59
2022-12-16T01:38:51.351Z,97027.06
2022-12-16T01:41:56.240Z,97025.56
2022-12-16T01:45:33.029Z,97027.84
2022-12-16T01:48:42.995Z,97035.94
2022-12-16T01:51:50.636Z,97039.75
2022-12-16T01:55:00.973Z,97041.47
2022-12-16T01:58:08.670Z,97047.63
2022-12-16T02:01:11.568Z,97050.50
2022-12-16T02:04:14.641Z,97055.19
2022-12-16T02:07:17.841Z,97052.81
2022-12-16T02:10:26.533Z,97055.44
2022-12-16T02:13:40.313Z,97050.59
2022-12-16T02:16:52.574Z,97060.13
2022-12-16T02:20:30.098Z,97061.69
2022-12-16T02:23:54.657Z,97064.91
2022-12-16T02:27:42.510Z,97066.63
2022-12-16T02:31:10.937Z,97067.31
2022-12-16T02:38:19.090Z,97059.78
2022-12-16T02:41:29.008Z,97063.75
2022-12-16T02:44:41.150Z,97054.13
2022-12-16T02:47:46.104Z,97062.16
2022-12-16T02:50:51.890Z,97059.97
2022-12-16T02:53:56.204Z,97068.69
2022-12-16T02:57:09.049Z,97071.66
2022-12-16T03:00:15.019Z,97081.28
2022-12-16T03:03:24.451Z,97077.06
2022-12-16T03:06:28.486Z,97074.63
2022-12-16T03:09:37.361Z,97088.50
2022-12-16T03:12:43.093Z,97077.25
2022-12-16T03:15:48.201Z,97084.94
2022-12-16T03:18:56.470Z,97088.94
2022-12-16T03:22:08.902Z,97094.78
2022-12-16T03:25:12.726Z,97086.31
2022-12-16T03:28:28.755Z,97096.25
2022-12-16T03:31:38.369Z,97094.91
2022-12-16T03:34:49.574Z,97095.34
2022-12-16T03:37:57.009Z,97112.63
2022-12-16T03:41:02.373Z,97106.91
2022-12-16T03:44:05.684Z,97112.06
2022-12-16T03:47:08.658Z,97117.44
2022-12-16T03:50:13.382Z,97121.91
2022-12-16T03:53:16.510Z,97126.25
2022-12-16T03:56:19.375Z,97122.47
2022-12-16T03:59:22.365Z,97124.44
2022-12-16T04:02:28.287Z,97127.41
2022-12-16T04:05:32.858Z,97133.34
2022-12-16T04:08:35.841Z,97133.69
2022-12-16T04:11:56.081Z,97132.78
2022-12-16T04:15:19.202Z,97134.25
2022-12-16T04:18:45.253Z,97143.66
2022-12-16T04:22:07.534Z,97138.63
2022-12-16T04:25:16.380Z,97149.16
2022-12-16T04:28:19.252Z,97151.34
2022-12-16T04:31:22.170Z,97153.84
2022-12-16T04:34:26.881Z,97152.81
2022-12-16T04:37:48.160Z,97156.94
2022-12-16T04:41:08.518Z,97161.16
2022-12-16T04:44:28.844Z,97168.63
2022-12-16T04:47:52.707Z,97164.59
2022-12-16T04:51:16.272Z,97174.69
2022-12-16T04:54:38.395Z,97178.09
2022-12-16T04:57:59.178Z,97187.03
2022-12-16T05:01:19.589Z,97192.53
2022-12-16T05:04:39.966Z,97188.41
2022-12-16T05:08:00.398Z,97197.00
2022-12-16T05:11:22.254Z,97199.16
2022-12-16T05:14:43.029Z,97195.53
2022-12-16T05:18:03.487Z,97200.56
2022-12-16T05:21:20.726Z,97197.44
2022-12-16T05:24:41.179Z,97214.97
2022-12-16T05:28:02.842Z,97201.56
2022-12-16T05:31:25.336Z,97207.41
2022-12-16T05:34:46.013Z,97216.59
2022-12-16T05:38:06.848Z,97222.19
2022-12-16T05:41:27.758Z,97227.38
2022-12-16T05:44:49.868Z,97236.28
2022-12-16T05:48:13.782Z,97243.63
2022-12-16T05:51:34.390Z,97238.59
2022-12-16T05:54:54.677Z,97244.75
2022-12-16T05:58:18.423Z,97252.53
2022-12-16T06:01:40.563Z,97255.75
2022-12-16T06:05:12.768Z,97262.34
2022-12-16T06:08:33.126Z,97264.75
2022-12-16T06:11:54.206Z,97268.34
2022-12-16T06:15:14.971Z,97277.59
2022-12-16T06:18:36.522Z,97284.69
2022-12-16T06:22:02.208Z,97288.34
2022-12-16T06:25:23.693Z,97293.94
2022-12-16T06:28:45.999Z,97306.22
2022-12-16T06:32:07.118Z,97311.38
2022-12-16T06:35:30.293Z,97318.91
2022-12-16T06:38:51.102Z,97319.03
2022-12-16T06:42:12.098Z,97317.53
2022-12-16T06:45:41.076Z,97331.00
2022-12-16T06:49:01.455Z,97331.28
2022-12-16T06:52:23.279Z,97346.59
2022-12-16T06:55:43.787Z,97352.22
2022-12-16T06:59:04.213Z,97362.69
2022-12-16T07:02:27.115Z,97368.47
2022-12-16T07:05:47.320Z,97371.00
2022-12-16T07:09:09.164Z,97381.47
2022-12-16T07:12:29.536Z,97385.41
2022-12-16T07:15:50.430Z,97386.03
2022-12-16T07:19:11.498Z,97392.59
2022-12-16T07:22:32.362Z,97399.78
2022-12-16T07:25:54.357Z,97401.72
2022-12-16T07:29:23.258Z,97408.50
2022-12-16T07:32:43.862Z,97406.75
2022-12-16T07:36:04.176Z,97407.22
2022-12-16T07:39:24.371Z,97409.03
2022-12-16T07:42:46.404Z,97420.72
2022-12-16T07:46:06.681Z,97432.84
2022-12-16T07:49:38.573Z,97431.69
2022-12-16T07:53:01.321Z,97442.59
2022-12-16T07:56:22.140Z,97444.19
2022-12-16T07:59:44.064Z,97448.06
2022-12-16T08:03:04.725Z,97449.91
2022-12-16T08:06:25.180Z,97462.16
2022-12-16T08:09:46.059Z,97461.97
2022-12-16T08:13:06.484Z,97469.75
2022-12-16T08:16:28.757Z,97476.66
2022-12-16T08:19:49.182Z,97476.22
2022-12-16T08:23:10.009Z,97485.16
2022-12-16T08:26:30.754Z,97486.38
2022-12-16T08:29:51.344Z,97496.91
2022-12-16T08:33:18.849Z,97502.03
2022-12-16T08:36:40.289Z,97511.03
2022-12-16T08:40:33.165Z,97509.72
2022-12-16T08:43:40.913Z,97510.38
2022-12-16T08:47:00.577Z,97522.94
2022-12-16T08:50:23.275Z,97525.50
2022-12-16T08:53:43.804Z,97533.72
2022-12-16T08:57:04.381Z,97535.00
2022-12-16T09:00:26.338Z,97546.94
2022-12-16T09:03:47.388Z,97556.53
2022-12-16T09:07:09.430Z,97556.66
2022-12-16T09:10:31.307Z,97552.34
2022-12-16T09:13:54.872Z,97563.53
2022-12-16T09:17:15.215Z,97567.22
2022-12-16T09:20:35.465Z,97566.25
2022-12-16T09:23:59.016Z,97565.47
2022-12-16T09:27:19.570Z,97575.53
2022-12-16T09:30:40.536Z,97575.72
2022-12-16T09:34:00.996Z,97576.19
2022-12-16T09:37:21.334Z,97590.25
2022-12-16T09:40:42.854Z,97589.94
2022-12-16T09:44:29.946Z,97593.94
2022-12-16T09:47:57.411Z,97589.47
2022-12-16T09:51:23.654Z,97594.66
2022-12-16T09:54:47.450Z,97606.13
2022-12-16T09:58:09.581Z,97593.75
2022-12-16T10:01:31.481Z,97604.25
2022-12-16T10:04:51.902Z,97601.97
2022-12-16T10:08:20.480Z,97602.38
2022-12-16T10:11:47.615Z,97607.97
2022-12-16T10:15:18.823Z,97610.09
2022-12-16T10:18:52.242Z,97610.34
2022-12-16T10:22:18.906Z,97609.56
2022-12-16T10:25:42.388Z,97613.06
2022-12-16T10:29:05.591Z,97610.56
2022-12-16T10:32:34.897Z,97610.03
2022-12-16T10:36:12.034Z,97618.81
2022-12-16T10:39:41.102Z,97613.88
2022-12-16T10:43:08.328Z,97616.06
2022-12-16T10:46:48.634Z,97608.41
2022-12-16T10:50:13.491Z,97616.09
2022-12-16T10:53:36.183Z,97615.53
2022-12-16T10:57:09.833Z,97616.44
2022-12-16T11:00:33.930Z,97623.47
2022-12-16T11:03:57.231Z,97635.38
2022-12-16T11:07:15.508Z,97623.91
2022-12-16T11:10:48.690Z,97630.78
2022-12-16T11:14:09.443Z,97640.09
2022-12-16T11:17:35.932Z,97643.19
2022-12-16T11:20:53.000Z,97648.47
2022-12-16T11:24:32.752Z,97639.63
2022-12-16T11:27:52.953Z,97636.09
2022-12-16T11:31:25.673Z,97641.44
2022-12-16T11:34:45.925Z,97641.06
2022-12-16T11:38:08.290Z,97654.19
2022-12-16T11:41:41.504Z,97648.09
2022-12-16T11:45:05.190Z,97646.63
2022-12-16T11:48:35.328Z,97649.88
2022-12-16T11:52:14.305Z,97656.63
2022-12-16T11:56:05.500Z,97662.97
2022-12-16T11:59:30.564Z,97659.28
2022-12-16T12:02:56.349Z,97669.88
2022-12-16T12:06:24.675Z,97669.53
2022-12-16T12:09:46.625Z,97670.69
2022-12-16T12:13:15.966Z,97673.00
2022-12-16T12:16:48.545Z,97671.16
2022-12-16T12:20:21.165Z,97682.72
2022-12-16T12:23:53.138Z,97688.59
2022-12-16T12:27:28.000Z,97687.09
2022-12-16T12:30:57.465Z,97692.91
2022-12-16T12:34:26.613Z,97707.56
2022-12-16T12:37:53.250Z,97711.75
2022-12-16T12:41:20.181Z,97705.91
2022-12-16T12:44:54.903Z,97713.63
2022-12-16T12:48:22.456Z,97719.50
2022-12-16T12:51:50.210Z,97721.44
2022-12-16T12:55:13.164Z,97723.50
2022-12-16T12:58:35.706Z,97714.47
2022-12-16T13:02:01.344Z,97721.06
2022-12-16T13:05:24.761Z,97730.88
2022-12-16T13:09:02.817Z,97724.91
2022-12-16T13:12:42.364Z,97730.34
2022-12-16T13:16:02.550Z,97731.94
2022-12-16T13:19:58.633Z,97733.06
2022-12-16T13:23:48.182Z,97735.19
2022-12-16T13:27:20.284Z,97750.72
2022-12-16T13:30:43.150Z,97758.81
2022-12-16T13:34:10.395Z,97768.78
2022-12-16T13:37:40.937Z,97768.19
2022-12-16T13:41:08.866Z,97770.53
2022-12-16T13:44:31.574Z,97781.66
2022-12-16T13:48:13.061Z,97780.31
2022-12-16T13:52:24.188Z,97782.78
2022-12-16T13:55:49.281Z,97785.28
2022-12-16T13:59:11.894Z,97786.59
2022-12-16T14:02:47.629Z,97794.38
2022-12-16T14:06:09.399Z,97798.00
2022-12-16T14:09:43.076Z,97801.38
2022-12-16T14:13:15.730Z,97815.69
2022-12-16T14:16:44.221Z,97817.97
2022-12-16T14:20:15.869Z,97830.34
2022-12-16T14:23:57.233Z,97836.44
2022-12-16T14:27:24.366Z,97839.91
2022-12-16T14:30:45.252Z,97840.28
2022-12-16T14:34:11.687Z,97850.41
2022-12-16T14:37:35.541Z,97862.63
2022-12-16T14:40:57.604Z,97855.97
2022-12-16T14:44:18.775Z,97857.78
2022-12-16T14:47:41.197Z,97865.69
2022-12-16T14:51:01.473Z,97869.28
2022-12-16T14:54:46.190Z,97877.75
2022-12-16T14:58:17.591Z,97878.38
2022-12-16T15:01:41.150Z,97882.69
2022-12-16T15:05:02.333Z,97892.28
2022-12-16T15:08:23.830Z,97892.28
2022-12-16T15:11:46.070Z,97900.34
2022-12-16T15:15:06.436Z,97902.44
2022-12-16T15:18:35.901Z,97906.50
2022-12-16T15:21:56.502Z,97907.94
2022-12-16T15:25:17.282Z,97909.75
2022-12-16T15:28:45.399Z,97910.44
2022-12-16T15:32:05.741Z,97913.72
2022-12-16T15:35:26.091Z,97923.03
2022-12-16T15:38:49.090Z,97925.06
2022-12-16T15:42:09.440Z,97937.25
2022-12-16T15:45:43.153Z,97947.16
2022-12-16T15:49:09.027Z,97946.78
2022-12-16T15:52:49.726Z,97947.25
2022-12-16T15:56:14.454Z,97957.63
2022-12-16T15:59:48.493Z,97967.09
2022-12-16T16:03:10.778Z,97977.66
2022-12-16T16:06:40.001Z,97980.88
2022-12-16T16:10:00.653Z,97990.00
2022-12-16T16:13:21.762Z,97982.75
2022-12-16T16:16:42.159Z,98002.84
2022-12-16T16:20:10.081Z,97996.34
2022-12-16T16:23:31.394Z,98009.69
2022-12-16T16:26:52.267Z,98005.19
2022-12-16T16:30:13.051Z,98015.78
2022-12-16T16:33:48.466Z,98016.41
2022-12-16T16:37:13.573Z,98017.81
2022-12-16T16:40:40.859Z,98015.19
2022-12-16T16:44:00.984Z,98019.25
2022-12-16T16:47:21.601Z,98024.75
2022-12-16T16:50:42.317Z,98022.09
2022-12-16T16:54:04.844Z,98024.34
2022-12-16T16:57:28.236Z,98028.19
2022-12-16T17:00:48.819Z,98031.66
2022-12-16T17:04:09.072Z,98049.69
2022-12-16T17:07:31.216Z,98048.06
2022-12-16T17:10:52.215Z,98050.25
2022-12-16T17:14:20.223Z,98053.06
2022-12-16T17:17:42.991Z,98056.94
2022-12-16T17:21:05.363Z,98064.66
2022-12-16T17:24:29.313Z,98072.56
2022-12-16T17:27:54.285Z,98084.53
2022-12-16T17:31:17.805Z,98084.09
2022-12-16T17:34:41.291Z,98085.34
2022-12-16T17:38:09.552Z,98101.34
2022-12-16T17:41:40.592Z,98108.41
2022-12-16T17:45:06.841Z,98112.25
2022-12-16T17:48:32.433Z,98111.44
2022-12-16T17:51:56.653Z,98118.13
2022-12-16T17:55:18.906Z,98114.88
2022-12-16T17:58:49.881Z,98114.88
2022-12-16T18:02:14.046Z,98118.34
2022-12-16T18:05:42.486Z,98123.38
2022-12-16T18:09:07.388Z,98128.47
2022-12-16T18:12:33.901Z,98125.00
2022-12-16T18:15:56.398Z,98134.56
2022-12-16T18:19:23.109Z,98133.94
2022-12-16T18:22:48.576Z,98146.69
2022-12-16T18:26:19.486Z,98144.69
2022-12-16T18:29:45.185Z,98145.06
2022-12-16T18:33:09.799Z,98157.44
2022-12-16T18:36:33.986Z,98158.25
2022-12-16T18:39:56.658Z,98163.69
2022-12-16T18:43:20.356Z,98164.69
2022-12-16T18:46:44.144Z,98168.16
2022-12-16T18:50:06.973Z,98173.19
2022-12-16T18:53:31.826Z,98175.84
2022-12-16T18:57:00.597Z,98181.91
2022-12-16T19:00:24.118Z,98183.13
2022-12-16T19:03:47.216Z,98186.81
2022-12-16T19:07:11.711Z,98188.00
2022-12-16T19:10:36.758Z,98194.88
2022-12-16T19:13:59.049Z,98207.44
2022-12-16T19:17:21.243Z,98207.03
2022-12-16T19:20:43.744Z,98213.28
2022-12-16T19:24:09.329Z,98214.72
2022-12-16T19:27:36.937Z,98219.38
2022-12-16T19:31:01.647Z,98224.25
2022-12-16T19:34:30.048Z,98225.66
2022-12-16T19:38:03.108Z,98230.94
2022-12-16T20:07:11.876Z,98275.84
2022-12-16T20:27:06.440Z,98302.97
2022-12-16T20:31:04.719Z,98311.25
2022-12-16T20:34:53.182Z,98307.81
2022-12-16T20:38:44.889Z,98313.31
2022-12-16T20:46:30.075Z,98316.56
2022-12-16T20:50:34.525Z,98316.75
2022-12-16T20:54:09.126Z,98320.56
2022-12-16T20:57:42.815Z,98319.94
2022-12-16T21:01:20.777Z,98323.00
2022-12-16T21:05:20.841Z,98330.69
2022-12-16T21:08:45.105Z,98338.94
2022-12-16T21:12:19.317Z,98346.63
2022-12-16T21:15:55.118Z,98348.69
2022-12-16T21:19:38.337Z,98361.28
2022-12-16T21:23:26.698Z,98361.22
2022-12-16T21:31:00.414Z,98362.22
2022-12-16T21:34:26.099Z,98370.53
2022-12-16T21:38:05.504Z,98367.56
2022-12-16T21:41:43.703Z,98379.91
2022-12-16T21:45:06.595Z,98388.56
2022-12-16T21:52:42.899Z,98393.22
2022-12-16T21:56:23.341Z,98408.13
2022-12-16T22:04:03.794Z,98411.16
2022-12-16T22:07:43.062Z,98422.31
2022-12-16T22:31:21.263Z,98475.38
2022-12-16T22:34:44.906Z,98478.00
2022-12-16T22:38:10.253Z,98480.66
2022-12-16T22:41:37.510Z,98484.72
2022-12-16T22:45:00.590Z,98489.50
2022-12-16T22:48:22.696Z,98488.78
2022-12-16T22:51:46.907Z,98489.22
2022-12-16T22:55:10.189Z,98498.56
2022-12-16T22:58:38.889Z,98506.06
2022-12-16T23:02:02.536Z,98506.66
2022-12-16T23:05:40.333Z,98519.44
2022-12-16T23:09:05.907Z,98508.28
2022-12-16T23:12:37.148Z,98519.03
2022-12-16T23:16:03.686Z,98519.88
2022-12-16T23:19:27.583Z,98524.13
2022-12-16T23:22:50.263Z,98523.50
2022-12-16T23:26:18.758Z,98525.09
2022-12-16T23:29:40.909Z,98521.91
2022-12-16T23:33:07.431Z,98521.63
2022-12-16T23:36:31.537Z,98519.31
2022-12-16T23:39:54.878Z,98519.31
2022-12-16T23:43:20.337Z,98518.16
2022-12-16T23:46:43.606Z,98519.91
2022-12-16T23:50:09.725Z,98515.50
2022-12-16T23:53:35.893Z,98509.63
2022-12-16T23:56:59.907Z,98521.56
